Johns Creek, Georgia
Current Conditions -  °F | °C
As of 2:53 AM on Sunday 23 Nov 2014 (Local Time) from KPDK Reporting Station
Light Rain Light Rain  
Wind Chill: 44°   Ceiling: 1700
Heat Index: 47°   Visibility: 9mi
Dew Point: 34°   Wind: 7mph
Humidity: 61%   Direction: NA
Pressure: 30.14"   Gusts: NA
Location:  34.03°N, 84.2°W
Report Text: KPDK 230753Z VRB06KT 9SM -RA OVC017 08/01 A3014 RMK AO2 RAB01E02B49 SLP206 P0000 T00830011
Loading
Personal Weather Stations






























Interactive Weather Map New forecast layout! Learn more

10-Day Weather Forecast

Advertisements
Track Severe Weather on mobile